Terminal Aerodrome Forecast
Issued by NWS Topeka, KS

Home | Current Version | Previous Version | Graphics & Text | Print | Product List | Glossary On
Versions: 1 2 3 4 5 6 7 8 9 10 11 12 13 14 15 16 17 18 19
000
FTUS43 KTOP 231448 AAA
TAFTOP
TAF AMD
KTOP 231448Z 2315/2412 17009KT P6SM SCT025 BKN100
     FM231700 17011KT P6SM VCTS SCT025 BKN040CB
     FM232100 17011KT P6SM SCT022
     FM240800 17007KT P6SM VCTS BKN025CB=

USA.gov is the U.S. government's official web portal to all federal, state and local government web resources and services.